sensor_id;sensor_type;location;lat;lon;timestamp;pressure;altitude;pressure_sealevel;temperature;humidity
50867;BME280;36839;51.946;21.002;2023-02-28T00:01:23;101558.30;;;-4.58;100.00
50867;BME280;36839;51.946;21.002;2023-02-28T00:03:50;101565.66;;;-4.62;100.00
50867;BME280;36839;51.946;21.002;2023-02-28T00:06:23;101558.85;;;-4.66;100.00
50867;BME280;36839;51.946;21.002;2023-02-28T00:08:50;101559.37;;;-4.70;100.00
50867;BME280;36839;51.946;21.002;2023-02-28T00:11:18;101562.37;;;-4.73;100.00
50867;BME280;36839;51.946;21.002;2023-02-28T00:13:45;101562.09;;;-4.78;100.00
50867;BME280;36839;51.946;21.002;2023-02-28T00:16:14;101561.23;;;-4.82;100.00
50867;BME280;36839;51.946;21.002;2023-02-28T00:18:42;101564.05;;;-4.86;100.00
50867;BME280;36839;51.946;21.002;2023-02-28T00:21:09;101566.61;;;-4.90;100.00
50867;BME280;36839;51.946;21.002;2023-02-28T00:23:37;101564.29;;;-4.94;100.00
50867;BME280;36839;51.946;21.002;2023-02-28T00:26:05;101567.98;;;-5.00;100.00
50867;BME280;36839;51.946;21.002;2023-02-28T00:28:34;101566.89;;;-5.03;100.00
50867;BME280;36839;51.946;21.002;2023-02-28T00:31:01;101572.61;;;-5.05;100.00
50867;BME280;36839;51.946;21.002;2023-02-28T00:33:28;101568.58;;;-5.08;100.00
50867;BME280;36839;51.946;21.002;2023-02-28T00:36:07;101565.73;;;-5.12;100.00
50867;BME280;36839;51.946;21.002;2023-02-28T00:38:34;101566.77;;;-5.16;100.00
50867;BME280;36839;51.946;21.002;2023-02-28T00:41:01;101569.38;;;-5.22;100.00
50867;BME280;36839;51.946;21.002;2023-02-28T00:43:33;101567.95;;;-5.25;100.00
50867;BME280;36839;51.946;21.002;2023-02-28T00:46:02;101568.96;;;-5.27;100.00
50867;BME280;36839;51.946;21.002;2023-02-28T00:48:29;101574.38;;;-5.27;100.00
50867;BME280;36839;51.946;21.002;2023-02-28T00:50:56;101575.73;;;-5.28;100.00
50867;BME280;36839;51.946;21.002;2023-02-28T00:53:25;101573.08;;;-5.28;100.00
50867;BME280;36839;51.946;21.002;2023-02-28T00:55:52;101570.38;;;-5.28;100.00
50867;BME280;36839;51.946;21.002;2023-02-28T00:58:19;101571.02;;;-5.28;100.00
50867;BME280;36839;51.946;21.002;2023-02-28T01:00:47;101569.05;;;-5.28;100.00
50867;BME280;36839;51.946;21.002;2023-02-28T01:03:18;101568.27;;;-5.29;100.00
50867;BME280;36839;51.946;21.002;2023-02-28T01:05:46;101571.65;;;-5.31;100.00
50867;BME280;36839;51.946;21.002;2023-02-28T01:08:13;101570.00;;;-5.32;100.00
50867;BME280;36839;51.946;21.002;2023-02-28T01:10:41;101574.67;;;-5.34;100.00
50867;BME280;36839;51.946;21.002;2023-02-28T01:13:08;101573.34;;;-5.36;100.00
50867;BME280;36839;51.946;21.002;2023-02-28T01:15:35;101571.32;;;-5.37;100.00
50867;BME280;36839;51.946;21.002;2023-02-28T01:18:03;101571.20;;;-5.40;100.00
50867;BME280;36839;51.946;21.002;2023-02-28T01:20:30;101572.45;;;-5.42;100.00
50867;BME280;36839;51.946;21.002;2023-02-28T01:23:00;101571.19;;;-5.46;100.00
50867;BME280;36839;51.946;21.002;2023-02-28T01:25:35;101573.68;;;-5.48;100.00
50867;BME280;36839;51.946;21.002;2023-02-28T01:28:02;101573.98;;;-5.49;100.00
50867;BME280;36839;51.946;21.002;2023-02-28T01:30:30;101573.66;;;-5.52;100.00
50867;BME280;36839;51.946;21.002;2023-02-28T01:32:57;101570.60;;;-5.54;100.00
50867;BME280;36839;51.946;21.002;2023-02-28T01:35:26;101570.29;;;-5.56;100.00
50867;BME280;36839;51.946;21.002;2023-02-28T01:37:53;101572.63;;;-5.60;100.00
50867;BME280;36839;51.946;21.002;2023-02-28T01:40:20;101570.38;;;-5.65;100.00
50867;BME280;36839;51.946;21.002;2023-02-28T01:42:46;101569.34;;;-5.70;100.00
50867;BME280;36839;51.946;21.002;2023-02-28T01:45:28;101574.14;;;-5.74;100.00
50867;BME280;36839;51.946;21.002;2023-02-28T01:48:24;101575.35;;;-5.75;100.00
50867;BME280;36839;51.946;21.002;2023-02-28T01:50:55;101576.08;;;-5.77;100.00
50867;BME280;36839;51.946;21.002;2023-02-28T01:53:30;101578.09;;;-5.78;100.00
50867;BME280;36839;51.946;21.002;2023-02-28T01:55:58;101579.07;;;-5.81;100.00
50867;BME280;36839;51.946;21.002;2023-02-28T01:58:26;101578.13;;;-5.83;100.00
50867;BME280;36839;51.946;21.002;2023-02-28T02:00:53;101579.98;;;-5.85;100.00
50867;BME280;36839;51.946;21.002;2023-02-28T02:03:20;101579.06;;;-5.87;100.00
50867;BME280;36839;51.946;21.002;2023-02-28T02:05:47;101582.90;;;-5.90;100.00
50867;BME280;36839;51.946;21.002;2023-02-28T02:08:22;101578.98;;;-5.92;100.00
50867;BME280;36839;51.946;21.002;2023-02-28T02:10:58;101577.55;;;-5.94;100.00
50867;BME280;36839;51.946;21.002;2023-02-28T02:36:23;101570.05;;;-6.16;100.00
50867;BME280;36839;51.946;21.002;2023-02-28T02:38:59;101571.29;;;-6.18;100.00
50867;BME280;36839;51.946;21.002;2023-02-28T02:41:52;101571.26;;;-6.17;100.00
50867;BME280;36839;51.946;21.002;2023-02-28T02:44:34;101572.24;;;-6.19;100.00
50867;BME280;36839;51.946;21.002;2023-02-28T02:47:09;101574.77;;;-6.23;100.00
50867;BME280;36839;51.946;21.002;2023-02-28T02:49:38;101575.16;;;-6.25;100.00
50867;BME280;36839;51.946;21.002;2023-02-28T02:52:12;101577.84;;;-6.25;100.00
50867;BME280;36839;51.946;21.002;2023-02-28T02:54:45;101583.55;;;-6.25;100.00
50867;BME280;36839;51.946;21.002;2023-02-28T02:57:14;101583.80;;;-6.26;100.00
50867;BME280;36839;51.946;21.002;2023-02-28T02:59:44;101585.50;;;-6.27;100.00
50867;BME280;36839;51.946;21.002;2023-02-28T03:02:14;101583.09;;;-6.28;100.00
50867;BME280;36839;51.946;21.002;2023-02-28T03:04:43;101584.79;;;-6.29;100.00
50867;BME280;36839;51.946;21.002;2023-02-28T03:07:12;101582.67;;;-6.31;100.00
50867;BME280;36839;51.946;21.002;2023-02-28T03:09:38;101585.02;;;-6.31;100.00
50867;BME280;36839;51.946;21.002;2023-02-28T03:12:09;101587.97;;;-6.30;100.00
50867;BME280;36839;51.946;21.002;2023-02-28T03:17:35;101593.02;;;-6.31;100.00
50867;BME280;36839;51.946;21.002;2023-02-28T03:20:32;101594.47;;;-6.33;100.00
50867;BME280;36839;51.946;21.002;2023-02-28T03:28:19;101596.85;;;-6.36;100.00
50867;BME280;36839;51.946;21.002;2023-02-28T03:30:52;101601.71;;;-6.37;100.00
50867;BME280;36839;51.946;21.002;2023-02-28T03:33:33;101599.13;;;-6.38;100.00
50867;BME280;36839;51.946;21.002;2023-02-28T03:36:04;101602.51;;;-6.38;100.00
50867;BME280;36839;51.946;21.002;2023-02-28T03:38:35;101608.05;;;-6.37;100.00
50867;BME280;36839;51.946;21.002;2023-02-28T03:41:12;101606.69;;;-6.38;100.00
50867;BME280;36839;51.946;21.002;2023-02-28T03:43:48;101606.25;;;-6.39;100.00
50867;BME280;36839;51.946;21.002;2023-02-28T03:46:20;101598.15;;;-6.41;100.00
50867;BME280;36839;51.946;21.002;2023-02-28T03:49:23;101602.19;;;-6.42;100.00
50867;BME280;36839;51.946;21.002;2023-02-28T03:51:52;101603.91;;;-6.46;100.00
50867;BME280;36839;51.946;21.002;2023-02-28T03:54:29;101604.27;;;-6.48;100.00
50867;BME280;36839;51.946;21.002;2023-02-28T03:59:44;101608.52;;;-6.49;100.00
50867;BME280;36839;51.946;21.002;2023-02-28T04:02:13;101610.23;;;-6.50;100.00
50867;BME280;36839;51.946;21.002;2023-02-28T04:04:41;101613.17;;;-6.49;100.00
50867;BME280;36839;51.946;21.002;2023-02-28T04:07:15;101613.73;;;-6.49;100.00
50867;BME280;36839;51.946;21.002;2023-02-28T04:09:43;101614.14;;;-6.48;100.00
50867;BME280;36839;51.946;21.002;2023-02-28T04:12:10;101614.54;;;-6.48;100.00
50867;BME280;36839;51.946;21.002;2023-02-28T04:14:37;101615.46;;;-6.49;100.00
50867;BME280;36839;51.946;21.002;2023-02-28T04:17:04;101617.55;;;-6.48;100.00
50867;BME280;36839;51.946;21.002;2023-02-28T04:19:32;101615.34;;;-6.47;100.00
50867;BME280;36839;51.946;21.002;2023-02-28T04:21:59;101613.04;;;-6.48;100.00
50867;BME280;36839;51.946;21.002;2023-02-28T04:24:27;101611.98;;;-6.50;100.00
50867;BME280;36839;51.946;21.002;2023-02-28T04:26:56;101613.52;;;-6.51;100.00
50867;BME280;36839;51.946;21.002;2023-02-28T04:29:26;101611.52;;;-6.53;100.00
50867;BME280;36839;51.946;21.002;2023-02-28T04:31:55;101616.35;;;-6.55;100.00
50867;BME280;36839;51.946;21.002;2023-02-28T04:34:25;101612.03;;;-6.57;100.00
50867;BME280;36839;51.946;21.002;2023-02-28T04:36:52;101616.46;;;-6.59;100.00
50867;BME280;36839;51.946;21.002;2023-02-28T04:39:21;101616.48;;;-6.61;100.00
50867;BME280;36839;51.946;21.002;2023-02-28T04:41:48;101617.01;;;-6.63;100.00
50867;BME280;36839;51.946;21.002;2023-02-28T04:44:15;101614.98;;;-6.65;100.00
50867;BME280;36839;51.946;21.002;2023-02-28T04:46:43;101618.36;;;-6.67;100.00
50867;BME280;36839;51.946;21.002;2023-02-28T04:49:14;101620.41;;;-6.68;100.00
50867;BME280;36839;51.946;21.002;2023-02-28T04:51:42;101619.41;;;-6.69;100.00
50867;BME280;36839;51.946;21.002;2023-02-28T04:54:09;101624.77;;;-6.68;100.00
50867;BME280;36839;51.946;21.002;2023-02-28T04:56:37;101623.11;;;-6.70;100.00
50867;BME280;36839;51.946;21.002;2023-02-28T04:59:04;101624.63;;;-6.71;100.00
50867;BME280;36839;51.946;21.002;2023-02-28T05:01:33;101633.00;;;-6.72;100.00
50867;BME280;36839;51.946;21.002;2023-02-28T05:04:01;101631.06;;;-6.73;100.00
50867;BME280;36839;51.946;21.002;2023-02-28T05:06:30;101631.19;;;-6.72;100.00
50867;BME280;36839;51.946;21.002;2023-02-28T05:08:57;101634.05;;;-6.72;100.00
50867;BME280;36839;51.946;21.002;2023-02-28T05:11:31;101635.55;;;-6.73;100.00
50867;BME280;36839;51.946;21.002;2023-02-28T05:14:04;101634.52;;;-6.76;100.00
50867;BME280;36839;51.946;21.002;2023-02-28T05:16:32;101637.58;;;-6.78;100.00
50867;BME280;36839;51.946;21.002;2023-02-28T05:18:59;101637.34;;;-6.79;100.00
50867;BME280;36839;51.946;21.002;2023-02-28T05:24:00;101644.75;;;-6.85;100.00
50867;BME280;36839;51.946;21.002;2023-02-28T05:26:28;101647.20;;;-6.86;100.00
50867;BME280;36839;51.946;21.002;2023-02-28T05:28:55;101645.00;;;-6.88;100.00
50867;BME280;36839;51.946;21.002;2023-02-28T05:31:23;101648.98;;;-6.91;100.00
50867;BME280;36839;51.946;21.002;2023-02-28T05:33:51;101649.41;;;-6.92;100.00
50867;BME280;36839;51.946;21.002;2023-02-28T05:36:19;101646.70;;;-6.94;100.00
50867;BME280;36839;51.946;21.002;2023-02-28T05:38:47;101648.80;;;-6.93;100.00
50867;BME280;36839;51.946;21.002;2023-02-28T05:41:16;101649.06;;;-6.92;100.00
50867;BME280;36839;51.946;21.002;2023-02-28T05:43:43;101649.46;;;-6.93;100.00
50867;BME280;36839;51.946;21.002;2023-02-28T05:46:11;101658.30;;;-6.91;100.00
50867;BME280;36839;51.946;21.002;2023-02-28T05:48:40;101654.00;;;-6.91;100.00
50867;BME280;36839;51.946;21.002;2023-02-28T05:51:08;101659.09;;;-6.87;100.00
50867;BME280;36839;51.946;21.002;2023-02-28T05:53:35;101658.09;;;-6.82;100.00
50867;BME280;36839;51.946;21.002;2023-02-28T05:56:03;101659.59;;;-6.76;100.00
50867;BME280;36839;51.946;21.002;2023-02-28T05:58:31;101659.52;;;-6.71;100.00
50867;BME280;36839;51.946;21.002;2023-02-28T06:00:59;101666.27;;;-6.66;100.00
50867;BME280;36839;51.946;21.002;2023-02-28T06:03:27;101666.06;;;-6.61;100.00
50867;BME280;36839;51.946;21.002;2023-02-28T06:05:54;101663.39;;;-6.54;100.00
50867;BME280;36839;51.946;21.002;2023-02-28T06:08:21;101667.32;;;-6.50;100.00
50867;BME280;36839;51.946;21.002;2023-02-28T06:10:48;101675.21;;;-6.46;100.00
50867;BME280;36839;51.946;21.002;2023-02-28T06:13:15;101676.05;;;-6.43;100.00
50867;BME280;36839;51.946;21.002;2023-02-28T06:15:42;101674.28;;;-6.38;100.00
50867;BME280;36839;51.946;21.002;2023-02-28T06:18:09;101676.23;;;-6.31;100.00
50867;BME280;36839;51.946;21.002;2023-02-28T06:20:36;101675.77;;;-6.26;100.00
50867;BME280;36839;51.946;21.002;2023-02-28T06:23:03;101673.48;;;-6.20;100.00
50867;BME280;36839;51.946;21.002;2023-02-28T06:25:30;101673.30;;;-6.14;100.00
50867;BME280;36839;51.946;21.002;2023-02-28T06:27:58;101677.36;;;-5.62;100.00
50867;BME280;36839;51.946;21.002;2023-02-28T06:30:26;101684.40;;;-5.10;100.00
50867;BME280;36839;51.946;21.002;2023-02-28T06:32:56;101682.42;;;-5.23;100.00
50867;BME280;36839;51.946;21.002;2023-02-28T06:35:23;101681.98;;;-5.28;100.00
50867;BME280;36839;51.946;21.002;2023-02-28T06:37:52;101687.56;;;-5.26;100.00
50867;BME280;36839;51.946;21.002;2023-02-28T06:40:20;101692.13;;;-5.25;100.00
50867;BME280;36839;51.946;21.002;2023-02-28T06:42:47;101689.63;;;-5.23;100.00
50867;BME280;36839;51.946;21.002;2023-02-28T06:45:14;101683.94;;;-5.20;100.00
50867;BME280;36839;51.946;21.002;2023-02-28T06:47:41;101687.58;;;-5.16;100.00
50867;BME280;36839;51.946;21.002;2023-02-28T06:50:12;101688.24;;;-5.09;100.00
50867;BME280;36839;51.946;21.002;2023-02-28T06:52:39;101686.30;;;-5.01;100.00
50867;BME280;36839;51.946;21.002;2023-02-28T06:55:07;101683.25;;;-4.93;100.00
50867;BME280;36839;51.946;21.002;2023-02-28T06:57:35;101684.55;;;-4.83;100.00
50867;BME280;36839;51.946;21.002;2023-02-28T07:00:12;101682.15;;;-4.72;100.00
50867;BME280;36839;51.946;21.002;2023-02-28T07:02:40;101685.40;;;-4.62;100.00
50867;BME280;36839;51.946;21.002;2023-02-28T07:05:07;101679.75;;;-4.53;100.00
50867;BME280;36839;51.946;21.002;2023-02-28T07:07:35;101679.96;;;-4.44;100.00
50867;BME280;36839;51.946;21.002;2023-02-28T07:10:05;101680.98;;;-4.35;100.00
50867;BME280;36839;51.946;21.002;2023-02-28T07:12:34;101682.05;;;-4.25;100.00
50867;BME280;36839;51.946;21.002;2023-02-28T07:15:04;101677.22;;;-4.16;100.00
50867;BME280;36839;51.946;21.002;2023-02-28T07:17:31;101674.15;;;-4.06;100.00
50867;BME280;36839;51.946;21.002;2023-02-28T07:19:58;101672.36;;;-3.96;100.00
50867;BME280;36839;51.946;21.002;2023-02-28T07:22:25;101675.66;;;-3.87;100.00
50867;BME280;36839;51.946;21.002;2023-02-28T07:24:52;101673.88;;;-3.77;100.00
50867;BME280;36839;51.946;21.002;2023-02-28T07:27:19;101672.29;;;-3.68;100.00
50867;BME280;36839;51.946;21.002;2023-02-28T07:29:50;101676.23;;;-3.58;100.00
50867;BME280;36839;51.946;21.002;2023-02-28T07:32:18;101673.73;;;-3.49;100.00
50867;BME280;36839;51.946;21.002;2023-02-28T07:34:45;101669.17;;;-3.38;100.00
50867;BME280;36839;51.946;21.002;2023-02-28T07:37:12;101670.29;;;-3.27;100.00
50867;BME280;36839;51.946;21.002;2023-02-28T07:39:39;101673.34;;;-3.16;100.00
50867;BME280;36839;51.946;21.002;2023-02-28T07:42:09;101673.34;;;-3.05;100.00
50867;BME280;36839;51.946;21.002;2023-02-28T07:44:41;101673.55;;;-2.94;100.00
50867;BME280;36839;51.946;21.002;2023-02-28T07:47:09;101674.64;;;-2.82;100.00
50867;BME280;36839;51.946;21.002;2023-02-28T07:49:36;101676.98;;;-2.71;100.00
50867;BME280;36839;51.946;21.002;2023-02-28T07:52:04;101677.67;;;-2.60;100.00
50867;BME280;36839;51.946;21.002;2023-02-28T07:54:32;101675.25;;;-2.50;100.00
50867;BME280;36839;51.946;21.002;2023-02-28T07:56:59;101676.75;;;-2.40;100.00
50867;BME280;36839;51.946;21.002;2023-02-28T07:59:26;101673.38;;;-2.31;100.00
50867;BME280;36839;51.946;21.002;2023-02-28T08:01:54;101676.23;;;-2.21;100.00
50867;BME280;36839;51.946;21.002;2023-02-28T08:04:21;101679.48;;;-2.12;100.00
50867;BME280;36839;51.946;21.002;2023-02-28T08:06:48;101678.14;;;-2.03;100.00
50867;BME280;36839;51.946;21.002;2023-02-28T08:09:14;101673.42;;;-1.95;100.00
50867;BME280;36839;51.946;21.002;2023-02-28T08:11:41;101677.52;;;-1.87;100.00
50867;BME280;36839;51.946;21.002;2023-02-28T08:14:08;101676.65;;;-1.79;100.00
50867;BME280;36839;51.946;21.002;2023-02-28T08:16:36;101673.22;;;-1.70;100.00
50867;BME280;36839;51.946;21.002;2023-02-28T08:19:03;101675.09;;;-1.62;100.00
50867;BME280;36839;51.946;21.002;2023-02-28T08:21:30;101676.80;;;-1.57;100.00
50867;BME280;36839;51.946;21.002;2023-02-28T08:23:57;101673.06;;;-1.51;100.00
50867;BME280;36839;51.946;21.002;2023-02-28T08:26:24;101672.37;;;-1.44;100.00
50867;BME280;36839;51.946;21.002;2023-02-28T08:28:52;101669.16;;;-1.39;100.00
50867;BME280;36839;51.946;21.002;2023-02-28T08:31:19;101670.14;;;-1.34;100.00
50867;BME280;36839;51.946;21.002;2023-02-28T08:33:46;101668.95;;;-1.28;100.00
50867;BME280;36839;51.946;21.002;2023-02-28T08:36:15;101664.95;;;-1.21;100.00
50867;BME280;36839;51.946;21.002;2023-02-28T08:38:42;101664.46;;;-1.14;100.00
50867;BME280;36839;51.946;21.002;2023-02-28T08:41:11;101665.98;;;-1.06;100.00
50867;BME280;36839;51.946;21.002;2023-02-28T08:43:39;101666.72;;;-1.03;100.00
50867;BME280;36839;51.946;21.002;2023-02-28T08:46:07;101663.19;;;-0.97;100.00
50867;BME280;36839;51.946;21.002;2023-02-28T08:48:35;101660.42;;;-0.92;100.00
50867;BME280;36839;51.946;21.002;2023-02-28T08:51:05;101662.50;;;-0.87;100.00
50867;BME280;36839;51.946;21.002;2023-02-28T08:53:33;101660.58;;;-0.84;99.57
50867;BME280;36839;51.946;21.002;2023-02-28T08:56:13;101660.15;;;-0.85;98.46
50867;BME280;36839;51.946;21.002;2023-02-28T08:58:41;101662.95;;;-0.83;98.56
50867;BME280;36839;51.946;21.002;2023-02-28T09:01:14;101663.31;;;-0.76;99.96
50867;BME280;36839;51.946;21.002;2023-02-28T09:03:42;101662.08;;;-0.66;99.96
50867;BME280;36839;51.946;21.002;2023-02-28T09:06:10;101662.38;;;-0.53;100.00
50867;BME280;36839;51.946;21.002;2023-02-28T09:08:38;101661.55;;;-0.42;100.00
50867;BME280;36839;51.946;21.002;2023-02-28T09:11:05;101668.43;;;-0.37;98.88
50867;BME280;36839;51.946;21.002;2023-02-28T09:13:34;101674.04;;;-0.34;97.94
50867;BME280;36839;51.946;21.002;2023-02-28T09:16:02;101670.48;;;-0.28;97.64
50867;BME280;36839;51.946;21.002;2023-02-28T09:18:30;101676.08;;;-0.21;96.51
50867;BME280;36839;51.946;21.002;2023-02-28T09:20:57;101679.80;;;-0.18;92.96
50867;BME280;36839;51.946;21.002;2023-02-28T09:23:24;101679.40;;;-0.16;91.22
50867;BME280;36839;51.946;21.002;2023-02-28T09:25:53;101679.70;;;-0.14;90.24
50867;BME280;36839;51.946;21.002;2023-02-28T09:28:22;101680.92;;;-0.07;92.19
50867;BME280;36839;51.946;21.002;2023-02-28T09:30:53;101679.17;;;0.01;92.22
50867;BME280;36839;51.946;21.002;2023-02-28T09:33:21;101683.80;;;0.05;89.93
50867;BME280;36839;51.946;21.002;2023-02-28T09:35:49;101681.54;;;0.09;89.85
50867;BME280;36839;51.946;21.002;2023-02-28T09:38:17;101679.78;;;0.15;89.87
50867;BME280;36839;51.946;21.002;2023-02-28T09:40:52;101679.84;;;0.23;88.71
50867;BME280;36839;51.946;21.002;2023-02-28T09:43:22;101675.59;;;0.27;87.95
50867;BME280;36839;51.946;21.002;2023-02-28T09:46:12;101675.55;;;0.25;84.49
50867;BME280;36839;51.946;21.002;2023-02-28T09:48:45;101681.95;;;0.22;78.58
50867;BME280;36839;51.946;21.002;2023-02-28T09:51:29;101681.02;;;0.19;76.77
50867;BME280;36839;51.946;21.002;2023-02-28T09:53:57;101678.85;;;0.24;80.83
50867;BME280;36839;51.946;21.002;2023-02-28T09:56:30;101677.80;;;0.30;79.10
50867;BME280;36839;51.946;21.002;2023-02-28T10:01:50;101672.26;;;0.47;78.64
50867;BME280;36839;51.946;21.002;2023-02-28T10:05:11;101673.08;;;0.55;79.12
50867;BME280;36839;51.946;21.002;2023-02-28T10:12:55;101677.77;;;0.55;75.90
50867;BME280;36839;51.946;21.002;2023-02-28T10:15:27;101678.17;;;0.51;72.86
50867;BME280;36839;51.946;21.002;2023-02-28T10:18:00;101678.82;;;0.52;72.99
50867;BME280;36839;51.946;21.002;2023-02-28T10:20:33;101676.60;;;0.56;73.89
50867;BME280;36839;51.946;21.002;2023-02-28T10:25:35;101674.58;;;0.61;72.64
50867;BME280;36839;51.946;21.002;2023-02-28T10:28:14;101677.52;;;0.62;72.24
50867;BME280;36839;51.946;21.002;2023-02-28T10:30:45;101676.05;;;0.59;71.90
50867;BME280;36839;51.946;21.002;2023-02-28T10:33:31;101667.67;;;0.64;72.65
50867;BME280;36839;51.946;21.002;2023-02-28T10:35:59;101670.36;;;0.79;74.84
50867;BME280;36839;51.946;21.002;2023-02-28T10:38:38;101672.00;;;0.92;74.46
50867;BME280;36839;51.946;21.002;2023-02-28T10:41:08;101665.52;;;1.28;89.08
50867;BME280;36839;51.946;21.002;2023-02-28T10:43:36;101666.82;;;1.92;90.82
50867;BME280;36839;51.946;21.002;2023-02-28T10:46:12;101665.29;;;2.17;75.69
50867;BME280;36839;51.946;21.002;2023-02-28T10:48:50;101663.60;;;2.45;71.51
50867;BME280;36839;51.946;21.002;2023-02-28T10:51:24;101667.52;;;2.71;67.60
50867;BME280;36839;51.946;21.002;2023-02-28T10:53:53;101671.83;;;2.70;66.58
50867;BME280;36839;51.946;21.002;2023-02-28T10:56:23;101669.58;;;2.74;69.76
50867;BME280;36839;51.946;21.002;2023-02-28T10:58:57;101667.05;;;2.96;68.82
50867;BME280;36839;51.946;21.002;2023-02-28T11:03:58;101661.21;;;2.74;63.94
50867;BME280;36839;51.946;21.002;2023-02-28T11:06:29;101658.61;;;2.59;63.72
50867;BME280;36839;51.946;21.002;2023-02-28T11:09:15;101656.67;;;2.36;62.22
50867;BME280;36839;51.946;21.002;2023-02-28T11:11:46;101652.30;;;2.11;61.52
50867;BME280;36839;51.946;21.002;2023-02-28T11:14:23;101642.22;;;1.82;61.16
50867;BME280;36839;51.946;21.002;2023-02-28T11:16:52;101643.61;;;1.70;61.91
50867;BME280;36839;51.946;21.002;2023-02-28T11:19:26;101643.75;;;1.69;63.03
50867;BME280;36839;51.946;21.002;2023-02-28T11:21:59;101644.09;;;1.77;63.50
50867;BME280;36839;51.946;21.002;2023-02-28T11:24:30;101639.11;;;2.01;64.40
50867;BME280;36839;51.946;21.002;2023-02-28T11:26:59;101634.30;;;2.16;63.71
50867;BME280;36839;51.946;21.002;2023-02-28T11:29:31;101631.70;;;2.16;63.75
50867;BME280;36839;51.946;21.002;2023-02-28T11:34:36;101627.71;;;2.25;64.08
50867;BME280;36839;51.946;21.002;2023-02-28T11:37:08;101621.61;;;2.36;64.43
50867;BME280;36839;51.946;21.002;2023-02-28T11:39:37;101623.95;;;2.37;62.83
50867;BME280;36839;51.946;21.002;2023-02-28T11:48:01;101610.92;;;2.15;60.65
50867;BME280;36839;51.946;21.002;2023-02-28T11:50:48;101607.73;;;2.07;60.58
50867;BME280;36839;51.946;21.002;2023-02-28T11:54:00;101602.20;;;2.06;61.43
50867;BME280;36839;51.946;21.002;2023-02-28T11:56:35;101597.65;;;2.00;61.61
50867;BME280;36839;51.946;21.002;2023-02-28T12:07:33;101580.88;;;3.06;61.35
50867;BME280;36839;51.946;21.002;2023-02-28T12:13:24;101571.17;;;3.43;58.58
50867;BME280;36839;51.946;21.002;2023-02-28T12:15:58;101568.55;;;3.58;58.20
50867;BME280;36839;51.946;21.002;2023-02-28T12:18:53;101564.63;;;3.95;58.19
50867;BME280;36839;51.946;21.002;2023-02-28T12:21:30;101554.13;;;4.16;56.89
50867;BME280;36839;51.946;21.002;2023-02-28T12:24:22;101552.80;;;4.32;55.85
50867;BME280;36839;51.946;21.002;2023-02-28T12:27:00;101554.78;;;4.32;56.65
50867;BME280;36839;51.946;21.002;2023-02-28T12:29:34;101550.34;;;4.30;55.86
50867;BME280;36839;51.946;21.002;2023-02-28T12:32:09;101551.03;;;4.10;54.57
50867;BME280;36839;51.946;21.002;2023-02-28T12:34:49;101546.31;;;3.92;54.48
50867;BME280;36839;51.946;21.002;2023-02-28T12:40:20;101541.97;;;3.68;55.29
50867;BME280;36839;51.946;21.002;2023-02-28T12:43:02;101541.05;;;3.80;55.39
50867;BME280;36839;51.946;21.002;2023-02-28T12:45:40;101539.87;;;4.03;55.24
50867;BME280;36839;51.946;21.002;2023-02-28T12:48:25;101539.83;;;4.35;55.31
50867;BME280;36839;51.946;21.002;2023-02-28T12:50:54;101537.16;;;4.20;54.12
50867;BME280;36839;51.946;21.002;2023-02-28T12:58:49;101531.70;;;3.49;55.45
50867;BME280;36839;51.946;21.002;2023-02-28T13:09:57;101524.38;;;3.17;56.49
50867;BME280;36839;51.946;21.002;2023-02-28T13:12:26;101524.17;;;3.19;56.48
50867;BME280;36839;51.946;21.002;2023-02-28T13:17:52;101527.75;;;3.15;55.51
50867;BME280;36839;51.946;21.002;2023-02-28T13:20:31;101526.38;;;3.04;55.61
50867;BME280;36839;51.946;21.002;2023-02-28T13:23:00;101523.59;;;3.06;56.02
50867;BME280;36839;51.946;21.002;2023-02-28T13:28:10;101521.06;;;2.95;55.93
50867;BME280;36839;51.946;21.002;2023-02-28T13:33:34;101518.15;;;3.04;56.09
50867;BME280;36839;51.946;21.002;2023-02-28T13:38:46;101511.55;;;3.13;55.38
50867;BME280;36839;51.946;21.002;2023-02-28T13:44:05;101506.75;;;3.20;55.36
50867;BME280;36839;51.946;21.002;2023-02-28T13:47:15;101502.28;;;3.10;55.10
50867;BME280;36839;51.946;21.002;2023-02-28T14:06:32;101481.39;;;3.19;55.86
50867;BME280;36839;51.946;21.002;2023-02-28T14:11:40;101475.52;;;3.26;55.16
50867;BME280;36839;51.946;21.002;2023-02-28T14:17:07;101468.56;;;3.47;55.26
50867;BME280;36839;51.946;21.002;2023-02-28T14:19:39;101467.24;;;3.53;54.76
50867;BME280;36839;51.946;21.002;2023-02-28T14:32:54;101455.46;;;3.89;54.99
50867;BME280;36839;51.946;21.002;2023-02-28T14:41:14;101450.23;;;3.85;54.99
50867;BME280;36839;51.946;21.002;2023-02-28T14:43:58;101452.45;;;3.92;54.60
50867;BME280;36839;51.946;21.002;2023-02-28T14:46:34;101448.38;;;3.93;54.58
50867;BME280;36839;51.946;21.002;2023-02-28T14:49:11;101442.83;;;3.93;54.44
50867;BME280;36839;51.946;21.002;2023-02-28T14:51:39;101441.70;;;3.93;54.13
50867;BME280;36839;51.946;21.002;2023-02-28T14:54:06;101444.40;;;3.89;53.57
50867;BME280;36839;51.946;21.002;2023-02-28T14:56:36;101445.48;;;3.92;54.11
50867;BME280;36839;51.946;21.002;2023-02-28T14:59:17;101442.90;;;3.91;54.55
50867;BME280;36839;51.946;21.002;2023-02-28T15:01:49;101446.80;;;3.76;54.20
50867;BME280;36839;51.946;21.002;2023-02-28T15:04:26;101446.09;;;3.72;54.79
50867;BME280;36839;51.946;21.002;2023-02-28T15:07:14;101441.00;;;3.68;54.58
50867;BME280;36839;51.946;21.002;2023-02-28T15:09:41;101438.65;;;3.64;54.42
50867;BME280;36839;51.946;21.002;2023-02-28T15:12:13;101441.61;;;3.45;53.93
50867;BME280;36839;51.946;21.002;2023-02-28T15:14:43;101438.95;;;3.32;54.67